Share

Prospect Creek, Prospect Cree, AK

Bettles (PABT) Elev 643 ft | 66.91 °N, 151.53 °W | Change Station

Current weather conditions updated 1 hour ago

Overcast
Overcast
32 °F
Feels Like 32 °F
N
0
Wind Variable Wind from North
Sunrise 6:00 AM
Sunset 10:04 PM
Moon Waning Gibbous

Today is forecast to be Cooler than yesterday.

Pressure 29.74 in
Visibility 10.0 miles
Clouds Overcast 5500 ft
Dew Point 24 °F
Humidity 73%
Rainfall 0.00 in
Snow Depth 8 in
UV 0 out of 16
Pollen Not available.
Air Quality Not available.
Flu Activity Sporadic
METAR PABT 191353Z 00000KT 10SM OVC055 00/M04 A2970 RMK AO2 SLP069 T00001044 PNO

More Conditions Fewer Conditions

Pressure 29.74 in
Visibility 10.0 miles
Clouds Overcast 5500 ft
Dew Point 24 °F
Humidity 73%
Rainfall 0.00 in
Snow Depth 8 in
UV 0 out of 16
Pollen Not available.
Air Quality Not available.
Flu Activity Sporadic
METAR PABT 191353Z 00000KT 10SM OVC055 00/M04 A2970 RMK AO2 SLP069 T00001044 PNO

More Conditions Fewer Conditions

10-Day Weather Forecast

Almanac

Astronomy

Apr. 19, 2014 Rise Set
Actual Time 6:00 AM AKDT 10:04 PM AKDT
Civil Twilight 4:52 AM AKDT 11:14 PM AKDT
Nautical Twilight 2:34 AM AKDT 1:29 AM AKDT
Astronomical Twilight Sun does not rise Sun does not rise
Moon 3:12 AM AKDT 8:13 AM AKDT
Length of Visible Light 18h 22m
Length of Day
16h 04m
Tomorrow will be 7m 47s longer.
Waning Gibbous, 79% of the Moon is Illuminated
Today
Waning Gibbous
Apr 22
Last Quarter
Apr 29
New
May 6
First Quarter
May 14
Full

Today's Extremes

State Highs State Lows

Community

  • A Glorious Morning
    A Glorious Morning
  • Tender Rays Of Hope
    Tender Rays Of Hope
  • Bleeding Hearts
    Bleeding Hearts
  • Sunset Silhouettes
    Sunset Silhouettes
  • FL sunset Perico Isle
    FL sunset Perico Isle

WunderPhotos

Upload Photos

1,702,755 photos uploaded!

WunderBlogs® & News

Nearby

Snow Depth

Station Depth Elevation
Gobblers Knob 8 in 2030 ft
Coldfoot 23 in 1040 ft
Atigun Pass 37 in 4800 ft
Imnaviat Creek 94 in 3050 ft
Fort Yukon 16 in 430 ft

Coastal Water Temperatures

Place Temperature
No Stations Reporting

Earthquake Activity

City Distance Mag. Time & Date
No recent earthquake activity has been reported nearby.
Minimum magnitude displayed is 2.5.

Nearby Weather Stations

Station Location Temp. Windchill Dew Point Humidity Wind Precip. Elev Updated Type
MesoWest GOBBLERS KNOB , Bettles, AK 31 °F 31 °F - - North  at  - 0.00 in / hr 2029 ft 6:00 AM AKDT MADIS

Show More Stations Show Fewer Stations

What do you think?

We're not finished. Please let us know what you like, what you don't like, and what you are still missing.